sensor_id;sensor_type;location;lat;lon;timestamp;temperature;humidity
1453;DHT22;720;47.738;7.998;2024-03-29T00:00:46;3.60;98.70
1453;DHT22;720;47.738;7.998;2024-03-29T00:03:11;3.30;98.40
1453;DHT22;720;47.738;7.998;2024-03-29T00:05:37;3.10;99.90
1453;DHT22;720;47.738;7.998;2024-03-29T00:08:04;3.10;98.90
1453;DHT22;720;47.738;7.998;2024-03-29T00:10:29;3.40;99.20
1453;DHT22;720;47.738;7.998;2024-03-29T00:12:55;3.30;99.40
1453;DHT22;720;47.738;7.998;2024-03-29T00:15:21;4.10;99.40
1453;DHT22;720;47.738;7.998;2024-03-29T00:17:46;3.80;99.20
1453;DHT22;720;47.738;7.998;2024-03-29T00:20:12;3.70;99.10
1453;DHT22;720;47.738;7.998;2024-03-29T00:22:38;3.30;98.80
1453;DHT22;720;47.738;7.998;2024-03-29T00:25:04;3.60;99.10
1453;DHT22;720;47.738;7.998;2024-03-29T00:27:30;3.60;99.10
1453;DHT22;720;47.738;7.998;2024-03-29T00:29:56;3.70;99.10
1453;DHT22;720;47.738;7.998;2024-03-29T00:32:22;3.70;99.00
1453;DHT22;720;47.738;7.998;2024-03-29T00:34:49;3.70;99.00
1453;DHT22;720;47.738;7.998;2024-03-29T00:37:15;3.80;98.90
1453;DHT22;720;47.738;7.998;2024-03-29T00:39:41;4.10;99.00
1453;DHT22;720;47.738;7.998;2024-03-29T00:42:10;3.90;98.80
1453;DHT22;720;47.738;7.998;2024-03-29T00:44:40;3.90;98.60
1453;DHT22;720;47.738;7.998;2024-03-29T00:47:06;3.90;98.90
1453;DHT22;720;47.738;7.998;2024-03-29T00:49:32;3.70;99.10
1453;DHT22;720;47.738;7.998;2024-03-29T00:51:58;3.80;99.10
1453;DHT22;720;47.738;7.998;2024-03-29T00:54:23;3.90;98.80
1453;DHT22;720;47.738;7.998;2024-03-29T00:56:49;3.60;98.60
1453;DHT22;720;47.738;7.998;2024-03-29T00:59:15;3.60;98.80
1453;DHT22;720;47.738;7.998;2024-03-29T01:01:41;3.70;98.90
1453;DHT22;720;47.738;7.998;2024-03-29T01:04:07;4.00;99.00
1453;DHT22;720;47.738;7.998;2024-03-29T01:06:33;4.10;99.30
1453;DHT22;720;47.738;7.998;2024-03-29T01:08:59;4.10;99.30
1453;DHT22;720;47.738;7.998;2024-03-29T01:11:25;4.00;99.00
1453;DHT22;720;47.738;7.998;2024-03-29T01:13:51;4.00;99.00
1453;DHT22;720;47.738;7.998;2024-03-29T01:16:17;4.30;99.10
1453;DHT22;720;47.738;7.998;2024-03-29T01:18:43;3.90;98.80
1453;DHT22;720;47.738;7.998;2024-03-29T01:21:09;4.30;98.80
1453;DHT22;720;47.738;7.998;2024-03-29T01:23:35;4.10;98.30
1453;DHT22;720;47.738;7.998;2024-03-29T01:26:01;4.10;98.30
1453;DHT22;720;47.738;7.998;2024-03-29T01:28:26;4.00;98.20
1453;DHT22;720;47.738;7.998;2024-03-29T01:30:55;4.10;98.20
1453;DHT22;720;47.738;7.998;2024-03-29T01:33:21;4.20;98.20
1453;DHT22;720;47.738;7.998;2024-03-29T01:35:47;4.30;98.00
1453;DHT22;720;47.738;7.998;2024-03-29T01:38:14;4.20;97.60
1453;DHT22;720;47.738;7.998;2024-03-29T01:40:40;4.70;97.90
1453;DHT22;720;47.738;7.998;2024-03-29T01:43:06;4.40;97.90
1453;DHT22;720;47.738;7.998;2024-03-29T01:45:35;4.10;99.90
1453;DHT22;720;47.738;7.998;2024-03-29T01:48:01;4.10;97.70
1453;DHT22;720;47.738;7.998;2024-03-29T01:50:27;4.00;97.90
1453;DHT22;720;47.738;7.998;2024-03-29T01:52:53;4.20;98.00
1453;DHT22;720;47.738;7.998;2024-03-29T01:55:18;4.40;97.70
1453;DHT22;720;47.738;7.998;2024-03-29T01:57:44;4.10;97.50
1453;DHT22;720;47.738;7.998;2024-03-29T02:00:10;4.30;97.60
1453;DHT22;720;47.738;7.998;2024-03-29T02:02:37;4.10;97.60
1453;DHT22;720;47.738;7.998;2024-03-29T02:05:03;3.90;97.70
1453;DHT22;720;47.738;7.998;2024-03-29T02:07:30;3.90;97.90
1453;DHT22;720;47.738;7.998;2024-03-29T02:09:56;4.10;98.00
1453;DHT22;720;47.738;7.998;2024-03-29T02:12:22;3.90;98.00
1453;DHT22;720;47.738;7.998;2024-03-29T02:14:47;3.90;97.90
1453;DHT22;720;47.738;7.998;2024-03-29T02:17:13;4.20;97.90
1453;DHT22;720;47.738;7.998;2024-03-29T02:19:38;4.20;97.90
1453;DHT22;720;47.738;7.998;2024-03-29T02:22:05;4.10;97.70
1453;DHT22;720;47.738;7.998;2024-03-29T02:24:33;4.30;97.80
1453;DHT22;720;47.738;7.998;2024-03-29T02:26:59;3.90;97.80
1453;DHT22;720;47.738;7.998;2024-03-29T02:29:25;4.20;97.70
1453;DHT22;720;47.738;7.998;2024-03-29T02:31:50;4.30;97.90
1453;DHT22;720;47.738;7.998;2024-03-29T02:34:16;4.20;97.90
1453;DHT22;720;47.738;7.998;2024-03-29T02:36:42;4.20;97.80
1453;DHT22;720;47.738;7.998;2024-03-29T02:39:09;4.30;98.00
1453;DHT22;720;47.738;7.998;2024-03-29T02:41:35;4.40;97.90
1453;DHT22;720;47.738;7.998;2024-03-29T02:44:01;4.40;97.70
1453;DHT22;720;47.738;7.998;2024-03-29T02:46:27;4.50;97.70
1453;DHT22;720;47.738;7.998;2024-03-29T02:48:52;4.60;97.70
1453;DHT22;720;47.738;7.998;2024-03-29T02:51:18;4.80;97.40
1453;DHT22;720;47.738;7.998;2024-03-29T02:53:44;4.90;96.90
1453;DHT22;720;47.738;7.998;2024-03-29T02:56:09;4.80;96.50
1453;DHT22;720;47.738;7.998;2024-03-29T02:58:35;4.80;96.60
1453;DHT22;720;47.738;7.998;2024-03-29T03:01:10;4.60;96.40
1453;DHT22;720;47.738;7.998;2024-03-29T03:03:36;4.60;96.90
1453;DHT22;720;47.738;7.998;2024-03-29T03:06:02;3.90;97.00
1453;DHT22;720;47.738;7.998;2024-03-29T03:08:29;4.70;97.50
1453;DHT22;720;47.738;7.998;2024-03-29T03:11:13;4.90;97.30
1453;DHT22;720;47.738;7.998;2024-03-29T03:13:39;4.90;96.90
1453;DHT22;720;47.738;7.998;2024-03-29T03:16:05;4.90;96.70
1453;DHT22;720;47.738;7.998;2024-03-29T03:18:31;4.90;96.90
1453;DHT22;720;47.738;7.998;2024-03-29T03:20:57;5.10;96.90
1453;DHT22;720;47.738;7.998;2024-03-29T03:23:24;5.20;96.70
1453;DHT22;720;47.738;7.998;2024-03-29T03:25:56;5.10;96.70
1453;DHT22;720;47.738;7.998;2024-03-29T03:28:22;5.20;96.60
1453;DHT22;720;47.738;7.998;2024-03-29T03:30:49;5.20;96.10
1453;DHT22;720;47.738;7.998;2024-03-29T03:33:15;5.20;96.30
1453;DHT22;720;47.738;7.998;2024-03-29T03:35:42;5.70;99.90
1453;DHT22;720;47.738;7.998;2024-03-29T03:38:07;5.40;96.40
1453;DHT22;720;47.738;7.998;2024-03-29T03:40:34;5.40;96.50
1453;DHT22;720;47.738;7.998;2024-03-29T03:43:04;5.50;95.90
1453;DHT22;720;47.738;7.998;2024-03-29T03:45:40;5.80;99.90
1453;DHT22;720;47.738;7.998;2024-03-29T03:48:07;5.70;95.60
1453;DHT22;720;47.738;7.998;2024-03-29T03:50:33;5.80;95.60
1453;DHT22;720;47.738;7.998;2024-03-29T03:52:59;5.80;95.80
1453;DHT22;720;47.738;7.998;2024-03-29T03:55:25;5.80;95.70
1453;DHT22;720;47.738;7.998;2024-03-29T03:57:51;5.90;95.60
1453;DHT22;720;47.738;7.998;2024-03-29T04:00:20;5.90;95.70
1453;DHT22;720;47.738;7.998;2024-03-29T04:02:50;5.90;95.50
1453;DHT22;720;47.738;7.998;2024-03-29T04:05:19;5.90;95.70
1453;DHT22;720;47.738;7.998;2024-03-29T04:07:45;6.00;96.00
1453;DHT22;720;47.738;7.998;2024-03-29T04:10:11;6.00;95.50
1453;DHT22;720;47.738;7.998;2024-03-29T04:12:37;6.00;95.20
1453;DHT22;720;47.738;7.998;2024-03-29T04:15:04;6.00;94.80
1453;DHT22;720;47.738;7.998;2024-03-29T04:17:30;5.90;95.20
1453;DHT22;720;47.738;7.998;2024-03-29T04:19:56;5.80;95.40
1453;DHT22;720;47.738;7.998;2024-03-29T04:22:22;5.90;95.40
1453;DHT22;720;47.738;7.998;2024-03-29T04:24:48;5.90;95.30
1453;DHT22;720;47.738;7.998;2024-03-29T04:27:14;6.00;95.80
1453;DHT22;720;47.738;7.998;2024-03-29T04:29:39;6.00;95.40
1453;DHT22;720;47.738;7.998;2024-03-29T04:32:05;6.10;95.40
1453;DHT22;720;47.738;7.998;2024-03-29T04:34:31;6.10;95.20
1453;DHT22;720;47.738;7.998;2024-03-29T04:36:57;6.20;94.70
1453;DHT22;720;47.738;7.998;2024-03-29T04:39:22;6.30;94.50
1453;DHT22;720;47.738;7.998;2024-03-29T04:41:48;6.40;94.40
1453;DHT22;720;47.738;7.998;2024-03-29T04:44:24;6.50;94.40
1453;DHT22;720;47.738;7.998;2024-03-29T04:46:50;6.60;94.40
1453;DHT22;720;47.738;7.998;2024-03-29T04:49:18;6.60;94.40
1453;DHT22;720;47.738;7.998;2024-03-29T04:51:50;6.60;94.60
1453;DHT22;720;47.738;7.998;2024-03-29T04:54:17;6.70;94.40
1453;DHT22;720;47.738;7.998;2024-03-29T04:56:43;6.70;94.50
1453;DHT22;720;47.738;7.998;2024-03-29T04:59:10;6.70;94.70
1453;DHT22;720;47.738;7.998;2024-03-29T05:01:36;6.70;94.90
1453;DHT22;720;47.738;7.998;2024-03-29T05:04:02;6.70;95.40
1453;DHT22;720;47.738;7.998;2024-03-29T05:06:29;6.80;95.40
1453;DHT22;720;47.738;7.998;2024-03-29T05:08:54;6.80;95.20
1453;DHT22;720;47.738;7.998;2024-03-29T05:11:20;6.90;95.30
1453;DHT22;720;47.738;7.998;2024-03-29T05:13:47;6.90;95.20
1453;DHT22;720;47.738;7.998;2024-03-29T05:16:12;6.90;95.30
1453;DHT22;720;47.738;7.998;2024-03-29T05:18:38;6.90;95.50
1453;DHT22;720;47.738;7.998;2024-03-29T05:21:04;7.00;95.70
1453;DHT22;720;47.738;7.998;2024-03-29T05:23:30;6.90;95.50
1453;DHT22;720;47.738;7.998;2024-03-29T05:25:56;6.90;95.40
1453;DHT22;720;47.738;7.998;2024-03-29T05:28:21;6.90;95.50
1453;DHT22;720;47.738;7.998;2024-03-29T05:30:47;7.00;95.60
1453;DHT22;720;47.738;7.998;2024-03-29T05:33:13;7.00;95.70
1453;DHT22;720;47.738;7.998;2024-03-29T05:35:38;7.20;99.90
1453;DHT22;720;47.738;7.998;2024-03-29T05:38:04;7.00;96.60
1453;DHT22;720;47.738;7.998;2024-03-29T05:40:30;7.00;97.00
1453;DHT22;720;47.738;7.998;2024-03-29T05:42:55;7.10;97.50
1453;DHT22;720;47.738;7.998;2024-03-29T05:45:27;7.10;97.40
1453;DHT22;720;47.738;7.998;2024-03-29T05:47:55;7.10;97.30
1453;DHT22;720;47.738;7.998;2024-03-29T05:50:22;7.20;97.10
1453;DHT22;720;47.738;7.998;2024-03-29T05:52:48;7.30;97.20
1453;DHT22;720;47.738;7.998;2024-03-29T05:55:13;7.30;97.30
1453;DHT22;720;47.738;7.998;2024-03-29T05:57:39;7.40;97.50
1453;DHT22;720;47.738;7.998;2024-03-29T06:00:07;7.50;97.50
1453;DHT22;720;47.738;7.998;2024-03-29T06:02:34;7.60;97.60
1453;DHT22;720;47.738;7.998;2024-03-29T06:05:00;7.50;97.70
1453;DHT22;720;47.738;7.998;2024-03-29T06:07:26;7.30;97.70
1453;DHT22;720;47.738;7.998;2024-03-29T06:09:54;7.20;97.90
1453;DHT22;720;47.738;7.998;2024-03-29T06:12:19;7.30;97.90
1453;DHT22;720;47.738;7.998;2024-03-29T06:14:45;7.40;97.40
1453;DHT22;720;47.738;7.998;2024-03-29T06:17:29;7.40;97.60
1453;DHT22;720;47.738;7.998;2024-03-29T06:19:55;7.30;97.60
1453;DHT22;720;47.738;7.998;2024-03-29T06:22:25;7.30;97.40
1453;DHT22;720;47.738;7.998;2024-03-29T06:24:58;7.50;97.60
1453;DHT22;720;47.738;7.998;2024-03-29T06:27:33;7.50;96.70
1453;DHT22;720;47.738;7.998;2024-03-29T06:30:00;7.50;96.40
1453;DHT22;720;47.738;7.998;2024-03-29T06:32:25;7.60;96.40
1453;DHT22;720;47.738;7.998;2024-03-29T06:34:51;7.60;96.40
1453;DHT22;720;47.738;7.998;2024-03-29T06:37:17;7.60;96.50
1453;DHT22;720;47.738;7.998;2024-03-29T06:39:42;7.60;96.60
1453;DHT22;720;47.738;7.998;2024-03-29T06:42:09;7.60;97.20
1453;DHT22;720;47.738;7.998;2024-03-29T06:44:35;7.60;97.20
1453;DHT22;720;47.738;7.998;2024-03-29T06:47:00;7.60;96.80
1453;DHT22;720;47.738;7.998;2024-03-29T06:49:26;7.60;96.70
1453;DHT22;720;47.738;7.998;2024-03-29T06:51:52;7.70;96.90
1453;DHT22;720;47.738;7.998;2024-03-29T06:54:19;7.80;97.10
1453;DHT22;720;47.738;7.998;2024-03-29T06:56:48;7.90;97.00
1453;DHT22;720;47.738;7.998;2024-03-29T06:59:15;8.00;97.10
1453;DHT22;720;47.738;7.998;2024-03-29T07:01:40;8.00;97.30
1453;DHT22;720;47.738;7.998;2024-03-29T07:04:06;8.00;97.50
1453;DHT22;720;47.738;7.998;2024-03-29T07:06:32;8.00;97.70
1453;DHT22;720;47.738;7.998;2024-03-29T07:08:57;8.20;97.30
1453;DHT22;720;47.738;7.998;2024-03-29T07:11:23;8.30;96.90
1453;DHT22;720;47.738;7.998;2024-03-29T07:13:49;8.30;97.10
1453;DHT22;720;47.738;7.998;2024-03-29T07:16:14;8.40;97.20
1453;DHT22;720;47.738;7.998;2024-03-29T07:18:40;8.50;97.50
1453;DHT22;720;47.738;7.998;2024-03-29T07:21:05;8.50;97.70
1453;DHT22;720;47.738;7.998;2024-03-29T07:23:31;8.40;98.10
1453;DHT22;720;47.738;7.998;2024-03-29T07:26:01;8.40;98.20
1453;DHT22;720;47.738;7.998;2024-03-29T07:28:28;8.50;98.40
1453;DHT22;720;47.738;7.998;2024-03-29T07:30:54;8.40;98.50
1453;DHT22;720;47.738;7.998;2024-03-29T07:33:20;8.50;98.60
1453;DHT22;720;47.738;7.998;2024-03-29T07:35:49;8.50;98.70
1453;DHT22;720;47.738;7.998;2024-03-29T07:38:15;8.50;98.90
1453;DHT22;720;47.738;7.998;2024-03-29T07:40:49;8.30;99.90
1453;DHT22;720;47.738;7.998;2024-03-29T07:43:15;8.40;98.80
1453;DHT22;720;47.738;7.998;2024-03-29T07:45:41;8.40;99.90
1453;DHT22;720;47.738;7.998;2024-03-29T07:48:12;8.60;99.40
1453;DHT22;720;47.738;7.998;2024-03-29T07:50:39;8.60;99.20
1453;DHT22;720;47.738;7.998;2024-03-29T07:53:05;8.60;99.50
1453;DHT22;720;47.738;7.998;2024-03-29T07:55:30;8.30;99.90
1453;DHT22;720;47.738;7.998;2024-03-29T07:57:56;8.70;99.50
1453;DHT22;720;47.738;7.998;2024-03-29T08:00:22;8.80;99.00
1453;DHT22;720;47.738;7.998;2024-03-29T08:02:48;8.70;98.70
1453;DHT22;720;47.738;7.998;2024-03-29T08:05:14;8.70;98.80
1453;DHT22;720;47.738;7.998;2024-03-29T08:07:40;8.80;99.00
1453;DHT22;720;47.738;7.998;2024-03-29T08:10:06;9.00;99.90
1453;DHT22;720;47.738;7.998;2024-03-29T08:12:32;9.10;99.90
1453;DHT22;720;47.738;7.998;2024-03-29T08:14:58;9.10;99.90
1453;DHT22;720;47.738;7.998;2024-03-29T08:17:24;9.00;99.90
1453;DHT22;720;47.738;7.998;2024-03-29T08:19:50;9.20;99.90
1453;DHT22;720;47.738;7.998;2024-03-29T08:22:16;8.90;99.90
1453;DHT22;720;47.738;7.998;2024-03-29T08:24:42;9.10;99.90
1453;DHT22;720;47.738;7.998;2024-03-29T08:27:08;9.10;99.90
1453;DHT22;720;47.738;7.998;2024-03-29T08:29:34;9.20;99.90
1453;DHT22;720;47.738;7.998;2024-03-29T08:32:00;9.20;99.90
1453;DHT22;720;47.738;7.998;2024-03-29T08:34:25;9.20;99.90
1453;DHT22;720;47.738;7.998;2024-03-29T08:36:53;9.30;98.90
1453;DHT22;720;47.738;7.998;2024-03-29T08:39:19;9.60;99.90
1453;DHT22;720;47.738;7.998;2024-03-29T08:41:45;9.30;99.40
1453;DHT22;720;47.738;7.998;2024-03-29T08:44:11;9.20;99.90
1453;DHT22;720;47.738;7.998;2024-03-29T08:46:37;9.40;99.90
1453;DHT22;720;47.738;7.998;2024-03-29T08:49:03;9.60;99.10
1453;DHT22;720;47.738;7.998;2024-03-29T08:51:28;10.50;99.90
1453;DHT22;720;47.738;7.998;2024-03-29T08:53:55;10.50;99.90
1453;DHT22;720;47.738;7.998;2024-03-29T08:56:23;10.50;96.60
1453;DHT22;720;47.738;7.998;2024-03-29T08:58:49;10.70;95.40
1453;DHT22;720;47.738;7.998;2024-03-29T09:01:15;10.70;95.80
1453;DHT22;720;47.738;7.998;2024-03-29T09:03:41;10.80;95.70
1453;DHT22;720;47.738;7.998;2024-03-29T09:06:06;11.00;95.90
1453;DHT22;720;47.738;7.998;2024-03-29T09:08:32;11.30;96.10
1453;DHT22;720;47.738;7.998;2024-03-29T09:10:57;11.30;95.90
1453;DHT22;720;47.738;7.998;2024-03-29T09:13:23;11.30;94.70
1453;DHT22;720;47.738;7.998;2024-03-29T09:15:49;11.20;94.70
1453;DHT22;720;47.738;7.998;2024-03-29T09:18:15;11.30;95.10
1453;DHT22;720;47.738;7.998;2024-03-29T09:20:59;11.50;95.10
1453;DHT22;720;47.738;7.998;2024-03-29T09:23:26;11.90;94.60
1453;DHT22;720;47.738;7.998;2024-03-29T09:25:56;12.30;93.00
1453;DHT22;720;47.738;7.998;2024-03-29T09:28:23;12.50;92.40
1453;DHT22;720;47.738;7.998;2024-03-29T09:30:50;12.80;92.70
1453;DHT22;720;47.738;7.998;2024-03-29T09:33:15;12.90;91.70
1453;DHT22;720;47.738;7.998;2024-03-29T09:35:41;12.70;99.90
1453;DHT22;720;47.738;7.998;2024-03-29T09:38:07;13.00;91.40
1453;DHT22;720;47.738;7.998;2024-03-29T09:40:33;13.00;91.80
1453;DHT22;720;47.738;7.998;2024-03-29T09:43:00;13.20;92.30
1453;DHT22;720;47.738;7.998;2024-03-29T09:45:34;14.00;99.90
1453;DHT22;720;47.738;7.998;2024-03-29T09:48:03;13.70;91.40
1453;DHT22;720;47.738;7.998;2024-03-29T09:50:33;13.80;91.20
1453;DHT22;720;47.738;7.998;2024-03-29T09:53:00;13.80;91.30
1453;DHT22;720;47.738;7.998;2024-03-29T09:55:27;13.80;91.10
1453;DHT22;720;47.738;7.998;2024-03-29T09:57:54;13.70;90.80
1453;DHT22;720;47.738;7.998;2024-03-29T10:00:20;13.70;91.00
1453;DHT22;720;47.738;7.998;2024-03-29T10:02:46;13.90;90.70
1453;DHT22;720;47.738;7.998;2024-03-29T10:05:14;14.00;90.70
1453;DHT22;720;47.738;7.998;2024-03-29T10:07:41;14.10;90.90
1453;DHT22;720;47.738;7.998;2024-03-29T10:10:08;14.20;90.70
1453;DHT22;720;47.738;7.998;2024-03-29T10:12:34;14.30;90.00
1453;DHT22;720;47.738;7.998;2024-03-29T10:15:00;14.40;91.00
1453;DHT22;720;47.738;7.998;2024-03-29T10:17:36;14.60;90.60
1453;DHT22;720;47.738;7.998;2024-03-29T10:20:04;14.80;89.60
1453;DHT22;720;47.738;7.998;2024-03-29T10:22:42;15.00;87.00
1453;DHT22;720;47.738;7.998;2024-03-29T10:25:14;15.20;85.00
1453;DHT22;720;47.738;7.998;2024-03-29T10:27:40;15.30;82.20
1453;DHT22;720;47.738;7.998;2024-03-29T10:30:10;15.40;83.10
1453;DHT22;720;47.738;7.998;2024-03-29T10:32:39;15.60;80.50
1453;DHT22;720;47.738;7.998;2024-03-29T10:35:08;15.70;79.60
1453;DHT22;720;47.738;7.998;2024-03-29T10:37:35;15.80;81.20
1453;DHT22;720;47.738;7.998;2024-03-29T10:40:08;15.90;81.80
1453;DHT22;720;47.738;7.998;2024-03-29T10:42:39;16.10;81.80
1453;DHT22;720;47.738;7.998;2024-03-29T10:45:09;16.30;78.60
1453;DHT22;720;47.738;7.998;2024-03-29T10:47:35;16.40;75.90
1453;DHT22;720;47.738;7.998;2024-03-29T10:50:02;16.50;76.50
1453;DHT22;720;47.738;7.998;2024-03-29T10:52:31;16.70;76.70
1453;DHT22;720;47.738;7.998;2024-03-29T10:54:57;17.00;71.70
1453;DHT22;720;47.738;7.998;2024-03-29T10:57:24;17.20;70.40
1453;DHT22;720;47.738;7.998;2024-03-29T11:00:03;17.50;68.20
1453;DHT22;720;47.738;7.998;2024-03-29T11:05:35;18.00;76.70
1453;DHT22;720;47.738;7.998;2024-03-29T11:08:02;18.20;55.90
1453;DHT22;720;47.738;7.998;2024-03-29T11:10:40;18.40;58.70
1453;DHT22;720;47.738;7.998;2024-03-29T11:15:49;18.00;56.90
1453;DHT22;720;47.738;7.998;2024-03-29T11:18:17;17.90;54.80
1453;DHT22;720;47.738;7.998;2024-03-29T11:20:47;17.70;54.30
1453;DHT22;720;47.738;7.998;2024-03-29T11:23:18;17.40;54.30
1453;DHT22;720;47.738;7.998;2024-03-29T11:25:55;17.50;82.40
1453;DHT22;720;47.738;7.998;2024-03-29T11:28:33;17.20;57.00
1453;DHT22;720;47.738;7.998;2024-03-29T11:31:07;17.30;59.00
1453;DHT22;720;47.738;7.998;2024-03-29T11:38:37;18.20;55.40
1453;DHT22;720;47.738;7.998;2024-03-29T11:41:03;18.30;56.80
1453;DHT22;720;47.738;7.998;2024-03-29T11:43:30;18.70;55.10
1453;DHT22;720;47.738;7.998;2024-03-29T11:45:58;19.00;53.70
1453;DHT22;720;47.738;7.998;2024-03-29T11:48:26;19.20;54.70
1453;DHT22;720;47.738;7.998;2024-03-29T11:50:52;19.40;52.70
1453;DHT22;720;47.738;7.998;2024-03-29T11:53:18;19.60;50.10
1453;DHT22;720;47.738;7.998;2024-03-29T11:55:46;19.80;70.30
1453;DHT22;720;47.738;7.998;2024-03-29T11:58:13;19.50;46.80
1453;DHT22;720;47.738;7.998;2024-03-29T12:00:39;19.50;47.60
1453;DHT22;720;47.738;7.998;2024-03-29T12:03:05;19.50;47.80
1453;DHT22;720;47.738;7.998;2024-03-29T12:05:32;19.30;68.60
1453;DHT22;720;47.738;7.998;2024-03-29T12:07:58;19.30;46.40
1453;DHT22;720;47.738;7.998;2024-03-29T12:10:28;19.10;45.50
1453;DHT22;720;47.738;7.998;2024-03-29T12:12:59;18.70;45.70
1453;DHT22;720;47.738;7.998;2024-03-29T12:15:28;18.50;46.10
1453;DHT22;720;47.738;7.998;2024-03-29T12:17:59;18.40;46.20
1453;DHT22;720;47.738;7.998;2024-03-29T12:20:26;18.40;45.70
1453;DHT22;720;47.738;7.998;2024-03-29T12:22:53;18.30;46.00
1453;DHT22;720;47.738;7.998;2024-03-29T12:25:20;18.40;46.70
1453;DHT22;720;47.738;7.998;2024-03-29T12:27:52;18.40;47.30
1453;DHT22;720;47.738;7.998;2024-03-29T12:30:18;18.20;45.80
1453;DHT22;720;47.738;7.998;2024-03-29T12:32:46;17.90;45.30
1453;DHT22;720;47.738;7.998;2024-03-29T12:35:13;17.70;45.70
1453;DHT22;720;47.738;7.998;2024-03-29T12:37:48;17.50;45.70
1453;DHT22;720;47.738;7.998;2024-03-29T12:40:21;17.30;46.10
1453;DHT22;720;47.738;7.998;2024-03-29T12:42:50;17.20;45.80
1453;DHT22;720;47.738;7.998;2024-03-29T12:45:20;17.30;46.90
1453;DHT22;720;47.738;7.998;2024-03-29T12:47:47;17.40;46.40
1453;DHT22;720;47.738;7.998;2024-03-29T12:52:49;17.50;46.30
1453;DHT22;720;47.738;7.998;2024-03-29T12:55:14;17.60;47.00
1453;DHT22;720;47.738;7.998;2024-03-29T12:57:43;17.60;46.80
1453;DHT22;720;47.738;7.998;2024-03-29T13:00:13;17.50;46.80
1453;DHT22;720;47.738;7.998;2024-03-29T13:02:38;17.40;47.80
1453;DHT22;720;47.738;7.998;2024-03-29T13:05:04;17.30;48.40
1453;DHT22;720;47.738;7.998;2024-03-29T13:07:31;17.20;48.70
1453;DHT22;720;47.738;7.998;2024-03-29T13:09:57;17.20;48.90
1453;DHT22;720;47.738;7.998;2024-03-29T13:12:25;17.30;49.20
1453;DHT22;720;47.738;7.998;2024-03-29T13:14:51;17.40;49.30
1453;DHT22;720;47.738;7.998;2024-03-29T13:17:17;17.50;49.50
1453;DHT22;720;47.738;7.998;2024-03-29T13:19:43;17.50;49.60
1453;DHT22;720;47.738;7.998;2024-03-29T13:22:09;17.50;50.10
1453;DHT22;720;47.738;7.998;2024-03-29T13:24:34;17.60;52.30
1453;DHT22;720;47.738;7.998;2024-03-29T13:27:00;17.80;53.30
1453;DHT22;720;47.738;7.998;2024-03-29T13:29:26;17.90;51.20
1453;DHT22;720;47.738;7.998;2024-03-29T13:31:52;17.90;49.60
1453;DHT22;720;47.738;7.998;2024-03-29T13:34:18;17.90;49.10
1453;DHT22;720;47.738;7.998;2024-03-29T13:36:43;17.90;49.90
1453;DHT22;720;47.738;7.998;2024-03-29T13:39:11;18.10;50.00
1453;DHT22;720;47.738;7.998;2024-03-29T13:41:39;18.10;49.30
1453;DHT22;720;47.738;7.998;2024-03-29T13:44:06;18.20;49.40
1453;DHT22;720;47.738;7.998;2024-03-29T13:46:37;18.10;56.40
1453;DHT22;720;47.738;7.998;2024-03-29T13:49:04;18.20;50.40
1453;DHT22;720;47.738;7.998;2024-03-29T13:51:30;18.20;48.90
1453;DHT22;720;47.738;7.998;2024-03-29T13:53:55;18.20;48.90
1453;DHT22;720;47.738;7.998;2024-03-29T13:56:21;18.20;49.00
1453;DHT22;720;47.738;7.998;2024-03-29T13:58:47;18.10;48.90
1453;DHT22;720;47.738;7.998;2024-03-29T14:01:15;18.20;48.50
1453;DHT22;720;47.738;7.998;2024-03-29T14:03:41;18.40;48.90
1453;DHT22;720;47.738;7.998;2024-03-29T14:06:09;18.50;50.30
1453;DHT22;720;47.738;7.998;2024-03-29T14:08:36;18.70;49.70
1453;DHT22;720;47.738;7.998;2024-03-29T14:11:02;18.70;49.60
1453;DHT22;720;47.738;7.998;2024-03-29T14:13:28;18.80;50.00
1453;DHT22;720;47.738;7.998;2024-03-29T14:15:54;18.90;49.60
1453;DHT22;720;47.738;7.998;2024-03-29T14:18:21;18.90;48.50
1453;DHT22;720;47.738;7.998;2024-03-29T14:20:46;18.80;48.90
1453;DHT22;720;47.738;7.998;2024-03-29T14:23:12;18.70;48.10
1453;DHT22;720;47.738;7.998;2024-03-29T14:25:40;18.60;58.40
1453;DHT22;720;47.738;7.998;2024-03-29T14:28:06;18.60;48.50
1453;DHT22;720;47.738;7.998;2024-03-29T14:30:32;18.70;48.80
1453;DHT22;720;47.738;7.998;2024-03-29T14:32:58;18.60;48.40
1453;DHT22;720;47.738;7.998;2024-03-29T14:37:56;18.60;49.00
1453;DHT22;720;47.738;7.998;2024-03-29T14:40:22;18.70;49.20
1453;DHT22;720;47.738;7.998;2024-03-29T14:42:47;18.80;49.40
1453;DHT22;720;47.738;7.998;2024-03-29T14:45:13;18.90;49.70
1453;DHT22;720;47.738;7.998;2024-03-29T14:47:39;19.00;48.90
1453;DHT22;720;47.738;7.998;2024-03-29T14:50:05;19.10;50.60
1453;DHT22;720;47.738;7.998;2024-03-29T14:52:34;19.20;50.50
1453;DHT22;720;47.738;7.998;2024-03-29T14:54:59;19.30;51.40
1453;DHT22;720;47.738;7.998;2024-03-29T14:57:25;19.30;52.20
1453;DHT22;720;47.738;7.998;2024-03-29T14:59:51;19.20;53.30
1453;DHT22;720;47.738;7.998;2024-03-29T15:02:16;19.20;52.50
1453;DHT22;720;47.738;7.998;2024-03-29T15:04:42;19.20;50.80
1453;DHT22;720;47.738;7.998;2024-03-29T15:07:08;19.20;53.30
1453;DHT22;720;47.738;7.998;2024-03-29T15:09:34;19.20;52.50
1453;DHT22;720;47.738;7.998;2024-03-29T15:12:03;19.20;52.80
1453;DHT22;720;47.738;7.998;2024-03-29T15:14:29;19.20;52.90
1453;DHT22;720;47.738;7.998;2024-03-29T15:16:55;19.10;53.20
1453;DHT22;720;47.738;7.998;2024-03-29T15:19:21;19.00;52.70
1453;DHT22;720;47.738;7.998;2024-03-29T15:21:47;19.00;52.20
1453;DHT22;720;47.738;7.998;2024-03-29T15:24:14;18.90;51.80
1453;DHT22;720;47.738;7.998;2024-03-29T15:26:40;18.90;53.70
1453;DHT22;720;47.738;7.998;2024-03-29T15:29:05;18.60;52.80
1453;DHT22;720;47.738;7.998;2024-03-29T15:31:39;18.40;55.30
1453;DHT22;720;47.738;7.998;2024-03-29T15:34:06;18.20;56.20
1453;DHT22;720;47.738;7.998;2024-03-29T15:36:33;17.80;56.00
1453;DHT22;720;47.738;7.998;2024-03-29T15:38:59;17.60;55.80
1453;DHT22;720;47.738;7.998;2024-03-29T15:41:37;17.30;57.10
1453;DHT22;720;47.738;7.998;2024-03-29T15:44:05;16.90;57.20
1453;DHT22;720;47.738;7.998;2024-03-29T15:46:32;16.70;57.30
1453;DHT22;720;47.738;7.998;2024-03-29T15:48:58;16.50;57.20
1453;DHT22;720;47.738;7.998;2024-03-29T15:51:23;16.50;59.60
1453;DHT22;720;47.738;7.998;2024-03-29T15:53:50;16.50;58.30
1453;DHT22;720;47.738;7.998;2024-03-29T15:56:18;16.30;58.70
1453;DHT22;720;47.738;7.998;2024-03-29T15:58:45;16.00;58.00
1453;DHT22;720;47.738;7.998;2024-03-29T16:01:11;16.10;57.40
1453;DHT22;720;47.738;7.998;2024-03-29T16:03:38;16.10;59.90
1453;DHT22;720;47.738;7.998;2024-03-29T16:06:04;16.00;59.00
1453;DHT22;720;47.738;7.998;2024-03-29T16:08:30;16.00;59.70
1453;DHT22;720;47.738;7.998;2024-03-29T16:11:03;16.20;59.00
1453;DHT22;720;47.738;7.998;2024-03-29T16:13:30;16.10;59.90
1453;DHT22;720;47.738;7.998;2024-03-29T16:16:01;16.00;58.00
1453;DHT22;720;47.738;7.998;2024-03-29T16:18:28;16.10;58.10
1453;DHT22;720;47.738;7.998;2024-03-29T16:20:55;16.00;58.90
1453;DHT22;720;47.738;7.998;2024-03-29T16:23:21;16.00;58.10
1453;DHT22;720;47.738;7.998;2024-03-29T16:25:47;16.00;67.70
1453;DHT22;720;47.738;7.998;2024-03-29T16:28:15;15.90;58.30
1453;DHT22;720;47.738;7.998;2024-03-29T16:30:44;15.90;57.20
1453;DHT22;720;47.738;7.998;2024-03-29T16:33:10;15.90;57.70
1453;DHT22;720;47.738;7.998;2024-03-29T16:35:36;15.90;58.30
1453;DHT22;720;47.738;7.998;2024-03-29T16:38:02;15.80;55.60
1453;DHT22;720;47.738;7.998;2024-03-29T16:40:29;15.80;56.00